sensor_id;sensor_type;location;lat;lon;timestamp;pressure;altitude;pressure_sealevel;temperature;humidity
17936;BME280;9093;52.062;4.508;2022-09-09T00:00:37;101000.59;;;17.17;77.99
17936;BME280;9093;52.062;4.508;2022-09-09T00:12:25;100989.78;;;17.17;78.32
17936;BME280;9093;52.062;4.508;2022-09-09T00:17:53;100985.84;;;17.10;78.39
17936;BME280;9093;52.062;4.508;2022-09-09T00:20:45;100985.75;;;17.11;78.42
17936;BME280;9093;52.062;4.508;2022-09-09T00:23:28;100992.72;;;17.14;78.40
17936;BME280;9093;52.062;4.508;2022-09-09T00:32:14;100987.09;;;17.06;78.14
17936;BME280;9093;52.062;4.508;2022-09-09T00:34:57;100992.59;;;17.04;77.99
17936;BME280;9093;52.062;4.508;2022-09-09T00:37:41;100980.94;;;17.04;78.30
17936;BME280;9093;52.062;4.508;2022-09-09T00:40:28;100981.69;;;17.06;78.18
17936;BME280;9093;52.062;4.508;2022-09-09T00:46:32;100979.09;;;17.04;77.97
17936;BME280;9093;52.062;4.508;2022-09-09T00:49:24;100975.44;;;17.05;78.11
17936;BME280;9093;52.062;4.508;2022-09-09T00:55:13;100985.84;;;16.99;78.12
17936;BME280;9093;52.062;4.508;2022-09-09T00:57:55;100974.19;;;16.98;78.12
17936;BME280;9093;52.062;4.508;2022-09-09T01:00:42;100971.63;;;16.97;78.20
17936;BME280;9093;52.062;4.508;2022-09-09T01:09:22;100977.25;;;16.94;78.17
17936;BME280;9093;52.062;4.508;2022-09-09T01:12:09;100971.22;;;16.90;78.21
17936;BME280;9093;52.062;4.508;2022-09-09T01:14:52;100968.66;;;16.88;78.18
17936;BME280;9093;52.062;4.508;2022-09-09T01:18:08;100964.38;;;16.86;78.20
17936;BME280;9093;52.062;4.508;2022-09-09T01:29:06;100948.56;;;16.81;77.89
17936;BME280;9093;52.062;4.508;2022-09-09T01:32:01;100951.25;;;16.81;78.18
17936;BME280;9093;52.062;4.508;2022-09-09T01:34:42;100946.84;;;16.80;78.04
17936;BME280;9093;52.062;4.508;2022-09-09T01:37:23;100947.06;;;16.77;78.08
17936;BME280;9093;52.062;4.508;2022-09-09T01:40:03;100948.03;;;16.76;78.03
17936;BME280;9093;52.062;4.508;2022-09-09T01:42:43;100945.47;;;16.75;78.11
17936;BME280;9093;52.062;4.508;2022-09-09T01:45:25;100939.22;;;16.74;77.99
17936;BME280;9093;52.062;4.508;2022-09-09T01:48:06;100934.81;;;16.73;78.19
17936;BME280;9093;52.062;4.508;2022-09-09T01:50:46;100931.34;;;16.71;78.14
17936;BME280;9093;52.062;4.508;2022-09-09T01:53:28;100933.09;;;16.72;78.18
17936;BME280;9093;52.062;4.508;2022-09-09T01:56:26;100928.78;;;16.70;78.11
17936;BME280;9093;52.062;4.508;2022-09-09T02:02:32;100931.94;;;16.64;78.06
17936;BME280;9093;52.062;4.508;2022-09-09T02:08:10;100925.69;;;16.63;78.18
17936;BME280;9093;52.062;4.508;2022-09-09T02:11:08;100917.75;;;16.62;78.04
17936;BME280;9093;52.062;4.508;2022-09-09T02:13:56;100924.13;;;16.61;78.06
17936;BME280;9093;52.062;4.508;2022-09-09T02:16:47;100917.75;;;16.62;78.01
17936;BME280;9093;52.062;4.508;2022-09-09T02:19:34;100923.25;;;16.60;78.12
17936;BME280;9093;52.062;4.508;2022-09-09T02:22:18;100913.41;;;16.59;78.00
17936;BME280;9093;52.062;4.508;2022-09-09T02:25:05;100909.78;;;16.60;78.06
17936;BME280;9093;52.062;4.508;2022-09-09T02:27:47;100903.53;;;16.60;78.10
17936;BME280;9093;52.062;4.508;2022-09-09T02:30:38;100905.44;;;16.58;78.13
17936;BME280;9093;52.062;4.508;2022-09-09T02:33:19;100905.44;;;16.58;77.97
17936;BME280;9093;52.062;4.508;2022-09-09T02:36:00;100895.50;;;16.58;78.12
17936;BME280;9093;52.062;4.508;2022-09-09T02:38:45;100894.81;;;16.56;78.05
17936;BME280;9093;52.062;4.508;2022-09-09T02:41:31;100894.81;;;16.56;78.07
17936;BME280;9093;52.062;4.508;2022-09-09T02:44:12;100894.81;;;16.56;77.87
17936;BME280;9093;52.062;4.508;2022-09-09T02:47:08;100891.34;;;16.54;77.96
17936;BME280;9093;52.062;4.508;2022-09-09T02:55:58;100895.78;;;16.55;78.15
17936;BME280;9093;52.062;4.508;2022-09-09T02:58:41;100886.94;;;16.53;77.84
17936;BME280;9093;52.062;4.508;2022-09-09T03:01:22;100892.31;;;16.53;78.00
17936;BME280;9093;52.062;4.508;2022-09-09T03:04:02;100889.63;;;16.53;78.15
17936;BME280;9093;52.062;4.508;2022-09-09T03:06:45;100887.91;;;16.52;78.11
17936;BME280;9093;52.062;4.508;2022-09-09T03:09:26;100884.34;;;16.52;78.01
17936;BME280;9093;52.062;4.508;2022-09-09T03:12:06;100881.81;;;16.50;78.08
17936;BME280;9093;52.062;4.508;2022-09-09T03:14:48;100875.28;;;16.53;78.03
17936;BME280;9093;52.062;4.508;2022-09-09T03:17:28;100887.31;;;16.48;78.14
17936;BME280;9093;52.062;4.508;2022-09-09T03:20:10;100877.88;;;16.43;78.25
17936;BME280;9093;52.062;4.508;2022-09-09T03:22:52;100870.75;;;16.42;78.24
17936;BME280;9093;52.062;4.508;2022-09-09T03:25:33;100876.84;;;16.44;78.33
17936;BME280;9093;52.062;4.508;2022-09-09T03:28:13;100878.72;;;16.43;78.13
17936;BME280;9093;52.062;4.508;2022-09-09T03:30:57;100883.09;;;16.44;78.33
17936;BME280;9093;52.062;4.508;2022-09-09T03:33:37;100875.88;;;16.45;78.32
17936;BME280;9093;52.062;4.508;2022-09-09T03:36:17;100879.44;;;16.45;78.24
17936;BME280;9093;52.062;4.508;2022-09-09T03:38:58;100869.63;;;16.44;78.14
17936;BME280;9093;52.062;4.508;2022-09-09T03:41:39;100876.84;;;16.44;78.30
17936;BME280;9093;52.062;4.508;2022-09-09T03:44:19;100875.16;;;16.43;78.11
17936;BME280;9093;52.062;4.508;2022-09-09T03:47:00;100871.47;;;16.44;78.31
17936;BME280;9093;52.062;4.508;2022-09-09T03:49:41;100868.91;;;16.42;78.18
17936;BME280;9093;52.062;4.508;2022-09-09T03:52:21;100871.47;;;16.44;78.21
17936;BME280;9093;52.062;4.508;2022-09-09T03:55:05;100875.16;;;16.43;78.13
17936;BME280;9093;52.062;4.508;2022-09-09T03:57:45;100874.31;;;16.42;78.28
17936;BME280;9093;52.062;4.508;2022-09-09T04:00:26;100873.66;;;16.39;78.20
17936;BME280;9093;52.062;4.508;2022-09-09T04:03:07;100868.28;;;16.39;78.26
17936;BME280;9093;52.062;4.508;2022-09-09T04:05:48;100870.97;;;16.39;78.37
17936;BME280;9093;52.062;4.508;2022-09-09T04:08:31;100866.56;;;16.38;78.37
17936;BME280;9093;52.062;4.508;2022-09-09T04:11:16;100863.88;;;16.38;78.24
17936;BME280;9093;52.062;4.508;2022-09-09T04:13:56;100865.72;;;16.37;78.15
17936;BME280;9093;52.062;4.508;2022-09-09T04:16:41;100858.63;;;16.36;78.34
17936;BME280;9093;52.062;4.508;2022-09-09T04:19:25;100853.34;;;16.35;78.07
17936;BME280;9093;52.062;4.508;2022-09-09T04:22:08;100852.59;;;16.33;78.24
17936;BME280;9093;52.062;4.508;2022-09-09T04:24:48;100845.25;;;16.35;78.23
17936;BME280;9093;52.062;4.508;2022-09-09T04:27:28;100844.63;;;16.31;78.20
17936;BME280;9093;52.062;4.508;2022-09-09T04:30:09;100839.22;;;16.31;78.13
17936;BME280;9093;52.062;4.508;2022-09-09T04:32:50;100840.22;;;16.30;78.21
17936;BME280;9093;52.062;4.508;2022-09-09T04:35:30;100832.25;;;16.29;78.37
17936;BME280;9093;52.062;4.508;2022-09-09T04:38:11;100832.16;;;16.30;78.30
17936;BME280;9093;52.062;4.508;2022-09-09T04:40:51;100834.97;;;16.29;78.15
17936;BME280;9093;52.062;4.508;2022-09-09T04:43:34;100835.19;;;16.26;78.33
17936;BME280;9093;52.062;4.508;2022-09-09T04:46:14;100829.78;;;16.26;78.11
17936;BME280;9093;52.062;4.508;2022-09-09T04:48:57;100831.50;;;16.27;78.39
17936;BME280;9093;52.062;4.508;2022-09-09T04:51:37;100827.84;;;16.28;78.08
17936;BME280;9093;52.062;4.508;2022-09-09T04:54:17;100825.25;;;16.26;78.30
17936;BME280;9093;52.062;4.508;2022-09-09T04:56:57;100826.13;;;16.27;78.35
17936;BME280;9093;52.062;4.508;2022-09-09T04:59:39;100825.25;;;16.26;78.25
17936;BME280;9093;52.062;4.508;2022-09-09T05:02:19;100827.09;;;16.26;78.41
17936;BME280;9093;52.062;4.508;2022-09-09T05:05:00;100830.66;;;16.26;78.25
17936;BME280;9093;52.062;4.508;2022-09-09T05:07:40;100834.22;;;16.27;78.41
17936;BME280;9093;52.062;4.508;2022-09-09T05:10:21;100831.50;;;16.27;78.22
17936;BME280;9093;52.062;4.508;2022-09-09T05:13:05;100833.50;;;16.25;78.28
17936;BME280;9093;52.062;4.508;2022-09-09T05:15:53;100829.28;;;16.21;78.48
17936;BME280;9093;52.062;4.508;2022-09-09T05:18:34;100827.47;;;16.21;78.51
17936;BME280;9093;52.062;4.508;2022-09-09T05:21:15;100821.09;;;16.22;78.54
17936;BME280;9093;52.062;4.508;2022-09-09T05:23:55;100822.94;;;16.22;78.41
17936;BME280;9093;52.062;4.508;2022-09-09T05:26:38;100822.06;;;16.21;78.40
17936;BME280;9093;52.062;4.508;2022-09-09T05:29:18;100820.13;;;16.23;78.58
17936;BME280;9093;52.062;4.508;2022-09-09T05:31:59;100814.63;;;16.25;78.46
17936;BME280;9093;52.062;4.508;2022-09-09T05:34:39;100818.16;;;16.25;78.29
17936;BME280;9093;52.062;4.508;2022-09-09T05:37:19;100814.47;;;16.26;78.34
17936;BME280;9093;52.062;4.508;2022-09-09T05:40:00;100815.13;;;16.30;78.51
17936;BME280;9093;52.062;4.508;2022-09-09T05:42:41;100818.31;;;16.35;78.24
17936;BME280;9093;52.062;4.508;2022-09-09T05:45:21;100820.03;;;16.36;78.34
17936;BME280;9093;52.062;4.508;2022-09-09T05:48:01;100817.22;;;16.37;78.41
17936;BME280;9093;52.062;4.508;2022-09-09T05:50:42;100818.56;;;16.43;78.29
17936;BME280;9093;52.062;4.508;2022-09-09T05:53:23;100822.75;;;16.47;78.24
17936;BME280;9093;52.062;4.508;2022-09-09T05:56:04;100820.78;;;16.49;78.28
17936;BME280;9093;52.062;4.508;2022-09-09T05:58:45;100830.34;;;16.53;78.44
17936;BME280;9093;52.062;4.508;2022-09-09T06:01:32;100828.13;;;16.58;78.34
17936;BME280;9093;52.062;4.508;2022-09-09T06:04:13;100828.91;;;16.60;78.40
17936;BME280;9093;52.062;4.508;2022-09-09T06:06:53;100819.59;;;16.64;78.42
17936;BME280;9093;52.062;4.508;2022-09-09T06:09:35;100830.16;;;16.67;78.43
17936;BME280;9093;52.062;4.508;2022-09-09T06:12:15;100832.72;;;16.69;78.38
17936;BME280;9093;52.062;4.508;2022-09-09T06:14:55;100833.56;;;16.69;78.13
17936;BME280;9093;52.062;4.508;2022-09-09T06:17:35;100831.88;;;16.68;78.50
17936;BME280;9093;52.062;4.508;2022-09-09T06:20:16;100831.59;;;16.71;78.40
17936;BME280;9093;52.062;4.508;2022-09-09T06:22:56;100828.53;;;16.76;78.63
17936;BME280;9093;52.062;4.508;2022-09-09T06:25:36;100830.75;;;16.82;78.64
17936;BME280;9093;52.062;4.508;2022-09-09T06:28:19;100829.41;;;16.87;78.56
17936;BME280;9093;52.062;4.508;2022-09-09T06:31:02;100834.66;;;16.89;78.46
17936;BME280;9093;52.062;4.508;2022-09-09T06:33:44;100832.84;;;16.89;78.41
17936;BME280;9093;52.062;4.508;2022-09-09T06:36:26;100831.63;;;16.94;78.66
17936;BME280;9093;52.062;4.508;2022-09-09T06:39:07;100842.16;;;16.97;78.36
17936;BME280;9093;52.062;4.508;2022-09-09T06:41:52;100837.72;;;16.96;78.40
17936;BME280;9093;52.062;4.508;2022-09-09T06:44:33;100840.44;;;16.96;78.59
17936;BME280;9093;52.062;4.508;2022-09-09T06:47:13;100832.22;;;16.97;78.50
17936;BME280;9093;52.062;4.508;2022-09-09T06:49:53;100835.66;;;16.99;78.64
17936;BME280;9093;52.062;4.508;2022-09-09T06:52:34;100836.53;;;17.00;78.71
17936;BME280;9093;52.062;4.508;2022-09-09T06:55:14;100836.25;;;17.03;78.70
17936;BME280;9093;52.062;4.508;2022-09-09T06:57:55;100837.97;;;17.04;78.66
17936;BME280;9093;52.062;4.508;2022-09-09T07:00:36;100829.78;;;17.05;78.65
17936;BME280;9093;52.062;4.508;2022-09-09T07:03:18;100834.91;;;17.08;78.86
17936;BME280;9093;52.062;4.508;2022-09-09T07:05:59;100837.47;;;17.10;78.65
17936;BME280;9093;52.062;4.508;2022-09-09T07:08:39;100831.97;;;17.11;78.80
17936;BME280;9093;52.062;4.508;2022-09-09T07:11:20;100836.00;;;17.17;78.61
17936;BME280;9093;52.062;4.508;2022-09-09T07:14:01;100828.50;;;17.20;78.69
17936;BME280;9093;52.062;4.508;2022-09-09T07:16:43;100834.53;;;17.24;78.65
17936;BME280;9093;52.062;4.508;2022-09-09T07:19:23;100832.56;;;17.26;78.58
17936;BME280;9093;52.062;4.508;2022-09-09T07:22:03;100820.91;;;17.25;78.71
17936;BME280;9093;52.062;4.508;2022-09-09T07:24:47;100830.59;;;17.28;78.62
17936;BME280;9093;52.062;4.508;2022-09-09T07:27:28;100827.88;;;17.28;78.69
17936;BME280;9093;52.062;4.508;2022-09-09T07:30:09;100824.31;;;17.27;78.55
17936;BME280;9093;52.062;4.508;2022-09-09T07:32:50;100827.19;;;17.26;78.72
17936;BME280;9093;52.062;4.508;2022-09-09T07:35:31;100828.16;;;17.25;78.87
17936;BME280;9093;52.062;4.508;2022-09-09T07:38:11;100829.13;;;17.24;78.84
17936;BME280;9093;52.062;4.508;2022-09-09T07:40:52;100825.69;;;17.22;78.93
17936;BME280;9093;52.062;4.508;2022-09-09T07:43:32;100836.75;;;17.19;79.03
17936;BME280;9093;52.062;4.508;2022-09-09T07:46:14;100836.75;;;17.19;79.08
17936;BME280;9093;52.062;4.508;2022-09-09T07:48:55;100840.31;;;17.19;79.03
17936;BME280;9093;52.062;4.508;2022-09-09T07:51:39;100838.44;;;17.20;79.07
17936;BME280;9093;52.062;4.508;2022-09-09T07:54:22;100841.03;;;17.21;79.07
17936;BME280;9093;52.062;4.508;2022-09-09T07:57:03;100830.22;;;17.21;78.87
17936;BME280;9093;52.062;4.508;2022-09-09T07:59:44;100840.78;;;17.24;79.05
17936;BME280;9093;52.062;4.508;2022-09-09T08:02:25;100828.75;;;17.28;78.90
17936;BME280;9093;52.062;4.508;2022-09-09T08:05:08;100836.72;;;17.30;78.96
17936;BME280;9093;52.062;4.508;2022-09-09T08:07:48;100841.84;;;17.33;79.03
17936;BME280;9093;52.062;4.508;2022-09-09T08:10:28;100836.09;;;17.38;79.02
17936;BME280;9093;52.062;4.508;2022-09-09T08:13:10;100836.69;;;17.41;78.88
17936;BME280;9093;52.062;4.508;2022-09-09T08:15:51;100832.16;;;17.42;78.74
17936;BME280;9093;52.062;4.508;2022-09-09T08:18:32;100837.66;;;17.40;78.86
17936;BME280;9093;52.062;4.508;2022-09-09T08:21:13;100833.00;;;17.42;78.93
17936;BME280;9093;52.062;4.508;2022-09-09T08:23:58;100843.81;;;17.42;78.84
17936;BME280;9093;52.062;4.508;2022-09-09T08:26:40;100833.00;;;17.42;79.01
17936;BME280;9093;52.062;4.508;2022-09-09T08:29:21;100841.84;;;17.44;78.91
17936;BME280;9093;52.062;4.508;2022-09-09T08:32:01;100840.13;;;17.43;78.90
17936;BME280;9093;52.062;4.508;2022-09-09T08:34:42;100845.25;;;17.46;79.07
17936;BME280;9093;52.062;4.508;2022-09-09T08:37:22;100845.25;;;17.46;79.04
17936;BME280;9093;52.062;4.508;2022-09-09T08:40:03;100845.25;;;17.46;78.81
17936;BME280;9093;52.062;4.508;2022-09-09T08:42:45;100843.31;;;17.48;78.96
17936;BME280;9093;52.062;4.508;2022-09-09T08:45:33;100852.38;;;17.47;78.83
17936;BME280;9093;52.062;4.508;2022-09-09T08:48:22;100852.38;;;17.47;79.01
17936;BME280;9093;52.062;4.508;2022-09-09T08:51:10;100851.63;;;17.45;78.85
17936;BME280;9093;52.062;4.508;2022-09-09T08:53:50;100852.38;;;17.47;79.10
17936;BME280;9093;52.062;4.508;2022-09-09T08:56:31;100852.25;;;17.49;78.94
17936;BME280;9093;52.062;4.508;2022-09-09T08:59:12;100852.16;;;17.50;79.02
17936;BME280;9093;52.062;4.508;2022-09-09T09:05:19;100841.06;;;17.53;78.99
17936;BME280;9093;52.062;4.508;2022-09-09T09:07:59;100854.84;;;17.50;78.74
17936;BME280;9093;52.062;4.508;2022-09-09T09:10:47;100855.56;;;17.52;79.00
17936;BME280;9093;52.062;4.508;2022-09-09T09:13:43;100852.72;;;17.54;78.90
17936;BME280;9093;52.062;4.508;2022-09-09T09:19:23;100857.53;;;17.50;78.87
17936;BME280;9093;52.062;4.508;2022-09-09T09:22:19;100855.81;;;17.49;78.82
17936;BME280;9093;52.062;4.508;2022-09-09T09:30:39;100851.88;;;17.53;78.66
17936;BME280;9093;52.062;4.508;2022-09-09T09:33:26;100853.59;;;17.54;78.68
17936;BME280;9093;52.062;4.508;2022-09-09T09:36:08;100843.53;;;17.56;78.57
17936;BME280;9093;52.062;4.508;2022-09-09T09:38:53;100841.34;;;17.61;78.48
17936;BME280;9093;52.062;4.508;2022-09-09T09:41:40;100850.53;;;17.70;78.50
17936;BME280;9093;52.062;4.508;2022-09-09T09:47:07;100849.09;;;17.87;78.17
17936;BME280;9093;52.062;4.508;2022-09-09T09:49:58;100837.03;;;17.91;78.22
17936;BME280;9093;52.062;4.508;2022-09-09T09:52:42;100839.50;;;17.94;78.21
17936;BME280;9093;52.062;4.508;2022-09-09T09:55:22;100840.22;;;17.96;78.19
17936;BME280;9093;52.062;4.508;2022-09-09T09:58:05;100832.09;;;17.96;78.37
17936;BME280;9093;52.062;4.508;2022-09-09T10:00:49;100836.00;;;18.03;78.34
17936;BME280;9093;52.062;4.508;2022-09-09T10:03:31;100831.78;;;18.10;78.17
17936;BME280;9093;52.062;4.508;2022-09-09T10:06:12;100834.72;;;18.18;78.22
17936;BME280;9093;52.062;4.508;2022-09-09T10:08:52;100834.91;;;18.26;78.08
17936;BME280;9093;52.062;4.508;2022-09-09T10:11:41;100837.22;;;18.31;78.20
17936;BME280;9093;52.062;4.508;2022-09-09T10:14:36;100845.31;;;18.31;78.23
17936;BME280;9093;52.062;4.508;2022-09-09T10:17:32;100840.31;;;18.26;78.31
17936;BME280;9093;52.062;4.508;2022-09-09T10:20:35;100841.56;;;18.22;78.45
17936;BME280;9093;52.062;4.508;2022-09-09T10:26:39;100838.34;;;18.07;78.85
17936;BME280;9093;52.062;4.508;2022-09-09T10:32:25;100849.78;;;18.00;78.82
17936;BME280;9093;52.062;4.508;2022-09-09T10:52:25;100836.59;;;18.27;78.93
17936;BME280;9093;52.062;4.508;2022-09-09T10:55:14;100837.78;;;18.34;78.91
17936;BME280;9093;52.062;4.508;2022-09-09T10:57:58;100842.94;;;18.37;78.98
17936;BME280;9093;52.062;4.508;2022-09-09T11:00:42;100839.72;;;18.43;78.99
17936;BME280;9093;52.062;4.508;2022-09-09T11:03:26;100828.63;;;18.46;79.17
17936;BME280;9093;52.062;4.508;2022-09-09T11:06:16;100831.31;;;18.46;79.23
17936;BME280;9093;52.062;4.508;2022-09-09T11:09:00;100832.78;;;18.51;79.33
17936;BME280;9093;52.062;4.508;2022-09-09T11:11:45;100837.91;;;18.54;79.21
17936;BME280;9093;52.062;4.508;2022-09-09T11:14:29;100839.41;;;18.58;79.20
17936;BME280;9093;52.062;4.508;2022-09-09T11:17:15;100840.84;;;18.62;79.21
17936;BME280;9093;52.062;4.508;2022-09-09T11:20:02;100833.06;;;18.68;79.13
17936;BME280;9093;52.062;4.508;2022-09-09T11:22:48;100837.06;;;18.74;78.93
17936;BME280;9093;52.062;4.508;2022-09-09T11:31:16;100831.31;;;18.88;79.11
17936;BME280;9093;52.062;4.508;2022-09-09T11:36:51;100840.53;;;18.85;79.16
17936;BME280;9093;52.062;4.508;2022-09-09T11:42:34;100835.97;;;18.76;79.25
17936;BME280;9093;52.062;4.508;2022-09-09T11:45:19;100836.50;;;18.70;79.36
17936;BME280;9093;52.062;4.508;2022-09-09T11:48:01;100836.00;;;18.65;79.38
17936;BME280;9093;52.062;4.508;2022-09-09T11:50:42;100845.53;;;18.60;79.37
17936;BME280;9093;52.062;4.508;2022-09-09T11:53:22;100843.31;;;18.54;79.35
17936;BME280;9093;52.062;4.508;2022-09-09T11:56:10;100836.94;;;18.55;79.59
17936;BME280;9093;52.062;4.508;2022-09-09T11:58:55;100844.19;;;18.54;79.43
17936;BME280;9093;52.062;4.508;2022-09-09T12:01:42;100847.00;;;18.53;79.24
17936;BME280;9093;52.062;4.508;2022-09-09T12:09:50;100845.03;;;18.55;79.45
17936;BME280;9093;52.062;4.508;2022-09-09T12:12:34;100847.53;;;18.58;79.33
17936;BME280;9093;52.062;4.508;2022-09-09T12:17:56;100849.69;;;18.64;79.47
17936;BME280;9093;52.062;4.508;2022-09-09T12:20:37;100850.16;;;18.69;79.56
17936;BME280;9093;52.062;4.508;2022-09-09T12:23:19;100846.31;;;18.71;79.50
17936;BME280;9093;52.062;4.508;2022-09-09T12:31:54;100854.03;;;18.76;79.66
17936;BME280;9093;52.062;4.508;2022-09-09T12:35:37;100856.44;;;18.79;79.68
17936;BME280;9093;52.062;4.508;2022-09-09T12:37:51;100855.22;;;18.83;79.68
17936;BME280;9093;52.062;4.508;2022-09-09T12:40:34;100858.03;;;18.81;79.62
17936;BME280;9093;52.062;4.508;2022-09-09T12:43:19;100863.31;;;18.83;79.85
17936;BME280;9093;52.062;4.508;2022-09-09T12:46:02;100862.34;;;18.84;79.44
17936;BME280;9093;52.062;4.508;2022-09-09T12:48:44;100859.63;;;18.84;79.64
17936;BME280;9093;52.062;4.508;2022-09-09T12:51:29;100855.22;;;18.83;79.67
17936;BME280;9093;52.062;4.508;2022-09-09T12:54:13;100866.03;;;18.83;79.54
17936;BME280;9093;52.062;4.508;2022-09-09T12:56:55;100866.56;;;18.77;79.65
17936;BME280;9093;52.062;4.508;2022-09-09T12:59:36;100854.03;;;18.76;79.87
17936;BME280;9093;52.062;4.508;2022-09-09T13:02:22;100853.91;;;18.77;79.68
17936;BME280;9093;52.062;4.508;2022-09-09T13:05:12;100854.03;;;18.76;79.72
17936;BME280;9093;52.062;4.508;2022-09-09T13:08:00;100855.00;;;18.75;79.57
17936;BME280;9093;52.062;4.508;2022-09-09T13:13:29;100864.84;;;18.76;79.72
17936;BME280;9093;52.062;4.508;2022-09-09T13:16:22;100854.59;;;18.79;79.46
17936;BME280;9093;52.062;4.508;2022-09-09T13:19:07;100848.94;;;18.82;79.46
17936;BME280;9093;52.062;4.508;2022-09-09T13:21:49;100856.63;;;18.87;79.32
17936;BME280;9093;52.062;4.508;2022-09-09T13:24:31;100858.34;;;18.88;79.46
17936;BME280;9093;52.062;4.508;2022-09-09T13:27:51;100859.53;;;18.95;79.46
17936;BME280;9093;52.062;4.508;2022-09-09T13:33:17;100871.22;;;18.96;79.54
17936;BME280;9093;52.062;4.508;2022-09-09T13:36:00;100865.19;;;18.92;79.59
17936;BME280;9093;52.062;4.508;2022-09-09T13:41:33;100867.75;;;18.84;79.67
17936;BME280;9093;52.062;4.508;2022-09-09T13:44:17;100866.56;;;18.77;79.66
17936;BME280;9093;52.062;4.508;2022-09-09T13:47:16;100876.47;;;18.67;79.89
17936;BME280;9093;52.062;4.508;2022-09-09T13:49:57;100884.03;;;18.52;79.93
17936;BME280;9093;52.062;4.508;2022-09-09T13:52:37;100885.00;;;18.30;80.21
17936;BME280;9093;52.062;4.508;2022-09-09T13:55:19;100888.66;;;18.08;80.31
17936;BME280;9093;52.062;4.508;2022-09-09T13:58:02;100881.75;;;17.84;80.55
17936;BME280;9093;52.062;4.508;2022-09-09T14:00:43;100874.34;;;17.65;80.76
17936;BME280;9093;52.062;4.508;2022-09-09T14:03:24;100872.97;;;17.59;80.87
17936;BME280;9093;52.062;4.508;2022-09-09T14:06:05;100866.50;;;17.62;81.14
17936;BME280;9093;52.062;4.508;2022-09-09T14:08:45;100859.38;;;17.61;80.90
17936;BME280;9093;52.062;4.508;2022-09-09T14:11:25;100861.97;;;17.62;81.11
17936;BME280;9093;52.062;4.508;2022-09-09T14:14:05;100861.44;;;17.68;80.98
17936;BME280;9093;52.062;4.508;2022-09-09T14:16:47;100865.47;;;17.74;80.61
17936;BME280;9093;52.062;4.508;2022-09-09T14:19:28;100867.78;;;17.79;80.52
17936;BME280;9093;52.062;4.508;2022-09-09T14:22:08;100856.59;;;17.83;80.51
17936;BME280;9093;52.062;4.508;2022-09-09T14:24:49;100861.25;;;17.92;80.44
17936;BME280;9093;52.062;4.508;2022-09-09T14:27:30;100873.13;;;18.01;80.27
17936;BME280;9093;52.062;4.508;2022-09-09T14:30:10;100862.50;;;18.09;80.24
17936;BME280;9093;52.062;4.508;2022-09-09T14:32:51;100869.72;;;18.20;80.23
17936;BME280;9093;52.062;4.508;2022-09-09T14:35:31;100877.16;;;18.27;80.04
17936;BME280;9093;52.062;4.508;2022-09-09T14:38:13;100872.47;;;18.29;80.27
17936;BME280;9093;52.062;4.508;2022-09-09T14:40:54;100875.63;;;18.34;80.34
17936;BME280;9093;52.062;4.508;2022-09-09T14:43:34;100877.78;;;18.52;80.03
17936;BME280;9093;52.062;4.508;2022-09-09T14:46:15;100876.22;;;18.70;79.73
17936;BME280;9093;52.062;4.508;2022-09-09T14:48:56;100871.88;;;18.88;79.72
17936;BME280;9093;52.062;4.508;2022-09-09T14:51:37;100887.78;;;19.02;79.61
17936;BME280;9093;52.062;4.508;2022-09-09T14:54:17;100896.22;;;19.18;79.36
17936;BME280;9093;52.062;4.508;2022-09-09T14:56:57;100891.09;;;19.15;79.43
17936;BME280;9093;52.062;4.508;2022-09-09T14:59:38;100887.53;;;19.15;79.53
17936;BME280;9093;52.062;4.508;2022-09-09T15:02:18;100887.53;;;19.15;79.48
17936;BME280;9093;52.062;4.508;2022-09-09T15:04:59;100884.97;;;19.13;79.63
17936;BME280;9093;52.062;4.508;2022-09-09T15:07:39;100886.69;;;19.14;79.60
17936;BME280;9093;52.062;4.508;2022-09-09T15:10:20;100891.81;;;19.17;79.51
17936;BME280;9093;52.062;4.508;2022-09-09T15:13:04;100892.53;;;19.19;79.32
17936;BME280;9093;52.062;4.508;2022-09-09T15:15:44;100889.81;;;19.19;79.31
17936;BME280;9093;52.062;4.508;2022-09-09T15:18:25;100903.63;;;19.16;79.41
17936;BME280;9093;52.062;4.508;2022-09-09T15:21:09;100903.03;;;19.13;79.46
17936;BME280;9093;52.062;4.508;2022-09-09T15:23:54;100897.31;;;19.06;79.40
17936;BME280;9093;52.062;4.508;2022-09-09T15:26:35;100897.97;;;18.99;79.53
17936;BME280;9093;52.062;4.508;2022-09-09T15:29:19;100890.28;;;18.94;79.54
17936;BME280;9093;52.062;4.508;2022-09-09T15:32:00;100901.66;;;18.88;79.68
17936;BME280;9093;52.062;4.508;2022-09-09T15:34:42;100902.91;;;18.84;79.65
17936;BME280;9093;52.062;4.508;2022-09-09T15:37:23;100908.00;;;18.77;79.70
17936;BME280;9093;52.062;4.508;2022-09-09T15:40:04;100906.66;;;18.72;79.58
17936;BME280;9093;52.062;4.508;2022-09-09T15:42:44;100901.78;;;18.66;79.60
17936;BME280;9093;52.062;4.508;2022-09-09T15:45:25;100914.00;;;18.60;79.83
17936;BME280;9093;52.062;4.508;2022-09-09T15:48:06;100912.63;;;18.55;79.89
17936;BME280;9093;52.062;4.508;2022-09-09T15:50:46;100936.81;;;18.35;79.63
17936;BME280;9093;52.062;4.508;2022-09-09T15:53:27;100927.69;;;17.84;80.45
17936;BME280;9093;52.062;4.508;2022-09-09T15:56:08;100926.25;;;17.46;81.04
17936;BME280;9093;52.062;4.508;2022-09-09T15:58:49;100916.56;;;17.21;81.64
17936;BME280;9093;52.062;4.508;2022-09-09T16:01:30;100917.91;;;17.16;82.02
17936;BME280;9093;52.062;4.508;2022-09-09T16:04:11;100908.97;;;17.26;82.15
17936;BME280;9093;52.062;4.508;2022-09-09T16:06:55;100911.53;;;17.39;81.96
17936;BME280;9093;52.062;4.508;2022-09-09T16:09:38;100918.88;;;17.48;81.92
17936;BME280;9093;52.062;4.508;2022-09-09T16:12:20;100921.34;;;17.62;81.80
17936;BME280;9093;52.062;4.508;2022-09-09T16:15:01;100912.00;;;17.66;81.80
17936;BME280;9093;52.062;4.508;2022-09-09T16:17:42;100913.66;;;17.90;82.07
17936;BME280;9093;52.062;4.508;2022-09-09T16:20:24;100913.53;;;18.23;82.08
17936;BME280;9093;52.062;4.508;2022-09-09T16:23:05;100916.00;;;18.26;82.17
17936;BME280;9093;52.062;4.508;2022-09-09T16:25:53;100917.44;;;18.30;82.50